Time;durP1;ratioP1;P1;durP2;ratioP2;P2;SDS_P1;SDS_P2;PMS_P1;PMS_P2;Temp;Humidity;BMP_temperature;BMP_pressure;BME280_temperature;BME280_humidity;BME280_pressure;Samples;Min_cycle;Max_cycle;Signal;HPM_P1;HPM_P2
2021/09/03 00:01:33;;;;;;;4.15;3.70;;;20.90;99.90;;;;;;5012856;28;20053;-74
2021/09/03 00:04:00;;;;;;;6.72;3.80;;;21.00;99.90;;;;;;5011302;28;20402;-73
2021/09/03 00:06:28;;;;;;;5.30;3.72;;;21.20;99.90;;;;;;5011492;28;20041;-75
2021/09/03 00:08:55;;;;;;;4.10;3.80;;;21.30;99.90;;;;;;5014500;28;20037;-74
2021/09/03 00:11:23;;;;;;;4.05;3.75;;;21.50;99.90;;;;;;5015170;28;20061;-73
2021/09/03 00:13:50;;;;;;;4.07;3.78;;;21.60;99.90;;;;;;5016647;28;20061;-74
2021/09/03 00:16:18;;;;;;;4.50;4.10;;;21.80;99.90;;;;;;5014617;28;20391;-74
2021/09/03 00:18:49;;;;;;;6.00;4.50;;;21.80;99.90;;;;;;5015626;28;20030;-72
2021/09/03 00:21:16;;;;;;;5.00;4.03;;;22.00;99.90;;;;;;5014714;28;20026;-73
2021/09/03 00:23:44;;;;;;;5.80;3.70;;;21.90;99.90;;;;;;5014547;28;20443;-75
2021/09/03 00:26:11;;;;;;;4.45;3.92;;;21.90;99.90;;;;;;5016299;28;20092;-73
2021/09/03 00:28:38;;;;;;;4.65;3.80;;;21.90;99.90;;;;;;5016044;28;20532;-75
2021/09/03 00:31:05;;;;;;;5.45;4.10;;;22.10;99.90;;;;;;5016076;28;20076;-76
2021/09/03 00:33:33;;;;;;;6.28;3.88;;;22.10;99.90;;;;;;5014958;28;20049;-74
2021/09/03 00:36:00;;;;;;;5.30;4.88;;;22.10;99.90;;;;;;5014555;28;20026;-76
2021/09/03 00:38:27;;;;;;;4.90;4.30;;;22.20;99.90;;;;;;5015756;28;20045;-76
2021/09/03 00:40:55;;;;;;;4.15;3.50;;;22.30;99.90;;;;;;5015572;28;20053;-74
2021/09/03 00:43:22;;;;;;;4.35;3.78;;;22.40;99.90;;;;;;5015073;28;20060;-73
2021/09/03 00:45:49;;;;;;;4.05;3.70;;;22.40;99.90;;;;;;5013784;28;20022;-73
2021/09/03 00:48:17;;;;;;;3.85;3.55;;;22.50;99.90;;;;;;5014053;28;20022;-73
2021/09/03 00:50:46;;;;;;;4.00;3.70;;;22.60;99.90;;;;;;5013917;28;20498;-74
2021/09/03 00:53:14;;;;;;;3.60;3.30;;;22.70;99.90;;;;;;5015112;28;20386;-74
2021/09/03 00:55:41;;;;;;;3.65;3.35;;;22.70;99.90;;;;;;5013856;28;20025;-74
2021/09/03 00:58:08;;;;;;;4.25;3.55;;;22.80;99.90;;;;;;5014878;28;20018;-72
2021/09/03 01:00:39;;;;;;;3.95;3.45;;;22.80;99.90;;;;;;5014915;28;20097;-73
2021/09/03 01:03:06;;;;;;;3.92;3.63;;;22.90;99.90;;;;;;5013883;28;20052;-72
2021/09/03 01:05:34;;;;;;;3.78;3.40;;;22.90;99.90;;;;;;5015271;28;20374;-74
2021/09/03 01:08:01;;;;;;;5.25;3.90;;;22.90;99.90;;;;;;5015411;28;20022;-74
2021/09/03 01:10:28;;;;;;;4.78;4.38;;;23.10;99.90;;;;;;5015101;28;20025;-75
2021/09/03 01:12:56;;;;;;;5.38;4.40;;;23.10;99.90;;;;;;5015493;28;20022;-75
2021/09/03 01:15:23;;;;;;;5.82;4.43;;;23.20;99.90;;;;;;5013863;28;20030;-74
2021/09/03 01:17:50;;;;;;;5.00;4.38;;;23.40;99.90;;;;;;5013746;28;20390;-75
2021/09/03 01:20:18;;;;;;;11.07;8.57;;;23.70;99.90;;;;;;5012843;28;20026;-74
2021/09/03 01:22:45;;;;;;;5.10;4.30;;;23.70;99.80;;;;;;5013613;28;20048;-74
2021/09/03 01:25:15;;;;;;;4.47;4.07;;;23.70;99.40;;;;;;5015053;28;20030;-76
2021/09/03 01:27:43;;;;;;;6.13;5.57;;;23.60;99.40;;;;;;5014891;28;20034;-73
2021/09/03 01:30:14;;;;;;;10.90;9.82;;;23.70;99.00;;;;;;5013087;28;20112;-72
2021/09/03 01:32:43;;;;;;;17.88;16.13;;;23.90;99.00;;;;;;5013028;28;20033;-74
2021/09/03 01:35:11;;;;;;;13.13;11.65;;;24.00;99.00;;;;;;5014465;28;20022;-72
2021/09/03 01:37:38;;;;;;;10.52;9.10;;;24.20;98.90;;;;;;5013181;28;20030;-72
2021/09/03 01:40:06;;;;;;;14.52;13.32;;;24.20;98.10;;;;;;5013279;28;20399;-76
2021/09/03 01:42:34;;;;;;;25.98;23.58;;;24.10;97.50;;;;;;5013290;28;20053;-76
2021/09/03 01:45:02;;;;;;;28.40;25.75;;;24.30;97.90;;;;;;5012957;28;20026;-74
2021/09/03 01:47:29;;;;;;;10.68;8.13;;;24.20;97.50;;;;;;5014243;28;20057;-73
2021/09/03 01:49:57;;;;;;;8.30;4.00;;;24.10;98.60;;;;;;5014138;28;20025;-73
2021/09/03 01:52:24;;;;;;;7.05;3.30;;;24.10;99.50;;;;;;5014517;28;20049;-73
2021/09/03 01:54:52;;;;;;;4.50;2.88;;;24.00;99.50;;;;;;5014890;28;20025;-74
2021/09/03 01:57:19;;;;;;;5.63;2.85;;;23.70;99.70;;;;;;5013169;28;20022;-73
2021/09/03 01:59:47;;;;;;;5.78;2.92;;;23.40;99.90;;;;;;5014705;28;20026;-73
2021/09/03 02:02:14;;;;;;;6.72;3.65;;;23.20;99.90;;;;;;5013077;28;20030;-76
2021/09/03 02:04:42;;;;;;;6.15;3.40;;;23.20;99.80;;;;;;5012278;28;20050;-73
2021/09/03 02:07:09;;;;;;;5.65;3.55;;;23.30;99.90;;;;;;5014458;28;20089;-76
2021/09/03 02:09:36;;;;;;;5.55;3.33;;;23.00;99.90;;;;;;5013744;28;20025;-75
2021/09/03 02:12:04;;;;;;;6.55;3.53;;;23.20;99.90;;;;;;5013284;28;20022;-75
2021/09/03 02:14:31;;;;;;;4.35;3.40;;;23.30;99.90;;;;;;5013782;28;20120;-74
2021/09/03 02:16:58;;;;;;;6.10;3.60;;;23.40;99.90;;;;;;5014265;28;20057;-74
2021/09/03 02:19:26;;;;;;;5.75;3.67;;;23.20;99.90;;;;;;5014297;28;20038;-74
2021/09/03 02:21:53;;;;;;;6.53;3.60;;;23.00;99.90;;;;;;5014093;28;20036;-73
2021/09/03 02:24:20;;;;;;;6.85;3.10;;;23.10;99.50;;;;;;5012942;28;20025;-74
2021/09/03 02:26:48;;;;;;;6.30;3.20;;;22.90;99.90;;;;;;5012977;28;20030;-74
2021/09/03 02:29:15;;;;;;;7.07;3.70;;;23.10;99.90;;;;;;5012945;28;20018;-74
2021/09/03 02:31:43;;;;;;;4.93;2.95;;;23.10;99.90;;;;;;5012462;28;20018;-73
2021/09/03 02:34:10;;;;;;;6.47;3.30;;;23.10;99.90;;;;;;5012784;28;20383;-72
2021/09/03 02:36:37;;;;;;;5.00;3.00;;;23.20;99.50;;;;;;5013903;28;20105;-73
2021/09/03 02:39:06;;;;;;;5.82;3.13;;;23.10;99.60;;;;;;5012116;28;20022;-73
2021/09/03 02:41:33;;;;;;;5.78;2.92;;;23.00;99.60;;;;;;5013270;28;20038;-73
2021/09/03 02:44:01;;;;;;;5.32;3.08;;;22.90;99.80;;;;;;5012970;28;20383;-71
2021/09/03 02:46:28;;;;;;;4.18;3.35;;;23.10;99.70;;;;;;5011952;28;20029;-73
2021/09/03 02:48:55;;;;;;;4.88;3.13;;;23.20;99.90;;;;;;5013075;28;20438;-73
2021/09/03 02:51:23;;;;;;;5.68;3.10;;;23.10;99.50;;;;;;5011771;28;20064;-73
2021/09/03 02:53:50;;;;;;;7.57;3.30;;;23.00;99.90;;;;;;5013035;28;20022;-72
2021/09/03 02:56:18;;;;;;;7.18;3.03;;;23.00;99.90;;;;;;5013084;28;20026;-72
2021/09/03 02:58:45;;;;;;;6.50;2.72;;;23.20;99.90;;;;;;5011813;28;20478;-74
2021/09/03 03:01:12;;;;;;;7.78;2.80;;;23.10;99.50;;;;;;5011760;28;20030;-74
2021/09/03 03:03:40;;;;;;;8.90;3.20;;;23.10;99.50;;;;;;5012822;28;20068;-74
2021/09/03 03:06:07;;;;;;;5.30;3.00;;;23.10;99.40;;;;;;5013040;28;20045;-74
2021/09/03 03:08:34;;;;;;;5.60;2.42;;;23.00;99.50;;;;;;5011542;28;20033;-73
2021/09/03 03:11:02;;;;;;;5.75;3.10;;;23.30;99.90;;;;;;5013112;28;20109;-74
2021/09/03 03:13:30;;;;;;;5.13;2.95;;;23.20;99.30;;;;;;5012934;28;20100;-74
2021/09/03 03:15:58;;;;;;;5.45;3.00;;;23.30;99.30;;;;;;5013048;28;20158;-73
2021/09/03 03:18:25;;;;;;;6.72;3.65;;;23.10;99.30;;;;;;5013026;28;20025;-73
2021/09/03 03:20:53;;;;;;;6.40;2.92;;;23.40;99.40;;;;;;5012881;28;20037;-74
2021/09/03 03:23:21;;;;;;;6.93;3.40;;;23.50;98.90;;;;;;5012753;28;20026;-73
2021/09/03 03:25:49;;;;;;;7.07;3.17;;;23.40;98.70;;;;;;5011507;28;20030;-73
2021/09/03 03:28:16;;;;;;;4.93;2.97;;;23.60;98.80;;;;;;5012952;28;20026;-73
2021/09/03 03:30:44;;;;;;;6.82;3.08;;;23.30;99.10;;;;;;5012932;28;20493;-73
2021/09/03 03:33:11;;;;;;;4.93;2.90;;;23.40;98.80;;;;;;5011608;28;20032;-73
2021/09/03 03:35:38;;;;;;;7.10;3.30;;;23.40;98.20;;;;;;5012594;28;20073;-74
2021/09/03 03:38:06;;;;;;;10.05;3.85;;;23.40;98.20;;;;;;5012691;28;20046;-73
2021/09/03 03:40:34;;;;;;;6.25;3.05;;;23.40;98.50;;;;;;5012599;28;20014;-73
2021/09/03 03:43:01;;;;;;;7.60;3.10;;;23.20;98.60;;;;;;5014440;28;20014;-73
2021/09/03 03:45:28;;;;;;;6.18;3.10;;;23.30;99.20;;;;;;5015176;28;20509;-73
2021/09/03 03:47:56;;;;;;;6.82;2.70;;;23.40;98.70;;;;;;5015112;28;20022;-73
2021/09/03 03:50:23;;;;;;;7.82;3.63;;;23.40;98.50;;;;;;5016488;28;20034;-73
2021/09/03 03:52:50;;;;;;;5.28;2.67;;;23.30;98.90;;;;;;5016303;28;20524;-73
2021/09/03 03:55:17;;;;;;;6.07;3.53;;;23.50;98.50;;;;;;5016516;28;20045;-73
2021/09/03 03:57:45;;;;;;;8.15;2.80;;;23.30;98.40;;;;;;5016344;28;20033;-73
2021/09/03 04:00:13;;;;;;;6.60;2.88;;;23.40;98.60;;;;;;5014872;28;20442;-71
2021/09/03 04:02:40;;;;;;;4.13;3.17;;;23.60;98.60;;;;;;5016224;28;20367;-73
2021/09/03 04:05:08;;;;;;;5.95;3.05;;;23.40;97.70;;;;;;5014442;28;20045;-73
2021/09/03 04:07:35;;;;;;;7.35;3.25;;;23.50;98.20;;;;;;5016084;28;20026;-74
2021/09/03 04:10:05;;;;;;;5.43;3.25;;;23.60;98.00;;;;;;5016123;28;20109;-74
2021/09/03 04:12:32;;;;;;;6.55;3.30;;;23.20;97.90;;;;;;5014953;28;20030;-73
2021/09/03 04:14:59;;;;;;;7.43;3.20;;;23.40;98.40;;;;;;5014564;28;20056;-73
2021/09/03 04:17:27;;;;;;;6.13;3.22;;;23.40;98.60;;;;;;5015931;28;20064;-72
2021/09/03 04:19:54;;;;;;;5.70;3.17;;;23.40;98.60;;;;;;5015794;28;20026;-71
2021/09/03 04:22:21;;;;;;;7.68;4.00;;;23.40;98.70;;;;;;5015896;28;20026;-72
2021/09/03 04:24:49;;;;;;;7.15;3.00;;;23.50;98.70;;;;;;5015701;28;20029;-70
2021/09/03 04:27:16;;;;;;;6.30;3.28;;;23.60;98.90;;;;;;5015866;28;20018;-73
2021/09/03 04:29:44;;;;;;;6.82;3.60;;;23.60;98.90;;;;;;5014520;28;20026;-73
2021/09/03 04:32:11;;;;;;;7.07;3.60;;;23.40;98.80;;;;;;5016016;28;20026;-73
2021/09/03 04:34:38;;;;;;;4.75;3.03;;;23.40;99.10;;;;;;5014901;28;20030;-74
2021/09/03 04:37:06;;;;;;;6.82;3.92;;;23.40;98.70;;;;;;5016252;28;20467;-74
2021/09/03 04:39:34;;;;;;;6.22;3.60;;;23.10;99.00;;;;;;5016138;28;20018;-73
2021/09/03 04:42:02;;;;;;;6.38;3.55;;;23.00;99.40;;;;;;5014585;28;20025;-73
2021/09/03 04:44:29;;;;;;;6.07;3.60;;;23.00;99.20;;;;;;5014540;28;20026;-73
2021/09/03 04:46:56;;;;;;;5.03;3.33;;;23.00;99.40;;;;;;5014790;28;20028;-74
2021/09/03 04:49:24;;;;;;;8.52;3.88;;;23.00;99.70;;;;;;5015900;28;20018;-73
2021/09/03 04:51:51;;;;;;;5.03;3.95;;;22.80;99.90;;;;;;5014638;28;20022;-73
2021/09/03 04:54:19;;;;;;;8.30;3.53;;;22.90;99.90;;;;;;5015651;28;20053;-73
2021/09/03 04:56:46;;;;;;;5.78;3.72;;;22.60;99.90;;;;;;5015801;28;20017;-75
2021/09/03 04:59:13;;;;;;;9.27;4.22;;;22.60;99.90;;;;;;5015604;28;20022;-75
2021/09/03 05:01:41;;;;;;;8.20;3.80;;;22.40;99.90;;;;;;5014327;28;20139;-75
2021/09/03 05:04:08;;;;;;;11.10;3.92;;;22.30;99.90;;;;;;5014386;28;20398;-76
2021/09/03 05:06:36;;;;;;;5.57;3.72;;;22.40;99.90;;;;;;5015286;28;20133;-76
2021/09/03 05:09:03;;;;;;;6.30;3.60;;;22.40;99.90;;;;;;5015648;28;20026;-76
2021/09/03 05:11:31;;;;;;;7.32;3.70;;;22.20;99.90;;;;;;5014455;28;20148;-75
2021/09/03 05:13:58;;;;;;;9.52;3.72;;;22.20;99.90;;;;;;5015689;28;20045;-76
2021/09/03 05:16:26;;;;;;;10.73;3.85;;;22.10;99.90;;;;;;5014116;28;20029;-76
2021/09/03 05:18:54;;;;;;;10.32;4.03;;;22.00;99.90;;;;;;5014153;28;20113;-75
2021/09/03 05:21:22;;;;;;;10.55;4.18;;;21.90;99.90;;;;;;5015468;28;20038;-75
2021/09/03 05:23:49;;;;;;;13.93;4.82;;;21.80;99.90;;;;;;5015152;28;20029;-74
2021/09/03 05:26:16;;;;;;;10.07;4.18;;;21.80;99.90;;;;;;5015170;28;20396;-75
2021/09/03 05:28:44;;;;;;;10.27;4.57;;;21.80;99.90;;;;;;5015216;28;20018;-75
2021/09/03 05:31:11;;;;;;;12.48;5.05;;;21.50;99.90;;;;;;5014147;28;20108;-76
2021/09/03 05:33:39;;;;;;;12.90;5.00;;;21.40;99.90;;;;;;5015543;28;20034;-75
2021/09/03 05:36:10;;;;;;;10.27;5.22;;;21.50;99.90;;;;;;5013753;28;20030;-75
2021/09/03 05:38:38;;;;;;;9.55;4.65;;;21.50;99.90;;;;;;4998292;28;20129;-76
2021/09/03 05:41:05;;;;;;;12.00;5.30;;;21.50;99.90;;;;;;5013897;28;20386;-76
2021/09/03 05:43:33;;;;;;;10.95;5.47;;;21.40;99.90;;;;;;5014864;28;20445;-76
2021/09/03 05:46:01;;;;;;;9.77;5.30;;;21.30;99.90;;;;;;5013828;28;20022;-76
2021/09/03 05:48:31;;;;;;;12.23;4.88;;;21.30;99.90;;;;;;5013182;28;20056;-75
2021/09/03 05:50:59;;;;;;;12.98;5.97;;;21.20;99.90;;;;;;5014495;28;20034;-75
2021/09/03 05:53:26;;;;;;;15.02;6.20;;;21.20;99.90;;;;;;5013102;28;20501;-75
2021/09/03 05:55:53;;;;;;;13.25;5.82;;;21.00;99.90;;;;;;5014180;28;20032;-75
2021/09/03 05:58:21;;;;;;;11.18;5.07;;;20.80;99.90;;;;;;5013354;28;20022;-76
2021/09/03 06:00:48;;;;;;;14.57;5.60;;;20.80;99.90;;;;;;5014390;28;20026;-76
2021/09/03 06:03:16;;;;;;;16.23;6.03;;;20.70;99.90;;;;;;5013991;28;20026;-75
2021/09/03 06:05:43;;;;;;;17.50;5.95;;;20.70;99.90;;;;;;5011714;28;20050;-76
2021/09/03 06:08:10;;;;;;;14.77;6.22;;;20.70;99.90;;;;;;5013812;28;20026;-75
2021/09/03 06:10:38;;;;;;;14.15;6.22;;;20.70;99.90;;;;;;5013603;28;20368;-76
2021/09/03 06:13:05;;;;;;;16.67;6.75;;;20.50;99.90;;;;;;5013648;28;20044;-75
2021/09/03 06:15:33;;;;;;;21.83;8.07;;;20.30;99.90;;;;;;5013862;28;20097;-74
2021/09/03 06:18:02;;;;;;;18.27;7.43;;;20.20;99.90;;;;;;5013537;28;20517;-75
2021/09/03 06:20:29;;;;;;;13.32;6.05;;;20.10;99.90;;;;;;5013629;28;20021;-76
2021/09/03 06:22:56;;;;;;;18.00;6.60;;;20.10;99.90;;;;;;5013486;28;20423;-75
2021/09/03 06:25:24;;;;;;;16.50;6.55;;;19.90;99.90;;;;;;5012102;28;20097;-75
2021/09/03 06:27:51;;;;;;;21.70;7.00;;;19.80;99.90;;;;;;5012001;28;20044;-76
2021/09/03 06:30:18;;;;;;;17.10;6.70;;;19.80;99.90;;;;;;5013308;28;20053;-73
2021/09/03 06:32:46;;;;;;;18.83;6.97;;;19.60;99.90;;;;;;5012076;28;20036;-73
2021/09/03 06:35:13;;;;;;;14.15;6.53;;;19.60;99.90;;;;;;5011994;28;20375;-73
2021/09/03 06:37:41;;;;;;;20.05;8.27;;;19.50;99.90;;;;;;5012153;28;20034;-73
2021/09/03 06:40:08;;;;;;;20.15;8.10;;;19.50;99.90;;;;;;5011980;28;20030;-72
2021/09/03 06:42:36;;;;;;;24.20;8.73;;;19.30;99.90;;;;;;5011872;28;20034;-72
2021/09/03 06:45:03;;;;;;;16.27;7.80;;;19.20;99.90;;;;;;5013106;28;20018;-73
2021/09/03 06:47:30;;;;;;;17.80;8.40;;;19.20;99.90;;;;;;5013178;28;20022;-73
2021/09/03 06:49:58;;;;;;;16.55;8.32;;;19.10;99.90;;;;;;5011717;28;20026;-73
2021/09/03 06:52:28;;;;;;;20.27;8.82;;;19.00;99.90;;;;;;5013295;28;20425;-72
2021/09/03 06:55:02;;;;;;;;;;;19.00;99.90;;;;;;5013783;28;20033;-73
2021/09/03 06:57:30;;;;;;;20.40;9.32;;;19.00;99.90;;;;;;5011865;28;20259;-73
2021/09/03 06:59:58;;;;;;;18.45;9.02;;;18.90;99.90;;;;;;4995635;28;20184;-72
2021/09/03 07:02:25;;;;;;;20.67;9.05;;;18.90;99.90;;;;;;5011773;28;20428;-71
2021/09/03 07:04:52;;;;;;;24.40;9.65;;;18.90;99.90;;;;;;5011339;28;20050;-72
2021/09/03 07:07:20;;;;;;;17.83;8.98;;;18.80;99.90;;;;;;5013117;28;20021;-72
2021/09/03 07:09:47;;;;;;;25.95;10.13;;;18.70;99.90;;;;;;5011721;28;20104;-72
2021/09/03 07:12:14;;;;;;;21.67;9.70;;;18.60;99.90;;;;;;5013110;28;20097;-72
2021/09/03 07:14:43;;;;;;;16.33;8.90;;;18.50;99.90;;;;;;5011635;28;20430;-73
2021/09/03 07:17:11;;;;;;;23.95;9.40;;;18.50;99.90;;;;;;5014141;28;20120;-72
2021/09/03 07:19:39;;;;;;;22.60;9.23;;;18.40;99.90;;;;;;5017189;28;20101;-73
2021/09/03 07:22:07;;;;;;;20.55;9.40;;;18.40;99.90;;;;;;5017306;28;20072;-73
2021/09/03 07:24:34;;;;;;;17.23;8.88;;;18.30;99.90;;;;;;5015582;28;20030;-74
2021/09/03 07:27:03;;;;;;;20.23;9.45;;;18.30;99.90;;;;;;5016928;28;20560;-72
2021/09/03 07:29:30;;;;;;;21.80;10.00;;;18.30;99.90;;;;;;5015735;28;20113;-73
2021/09/03 07:31:57;;;;;;;20.42;9.20;;;18.20;99.90;;;;;;5017238;28;20379;-73
2021/09/03 07:34:25;;;;;;;22.75;10.13;;;18.10;99.90;;;;;;5015475;28;20058;-72
2021/09/03 07:36:52;;;;;;;20.60;9.52;;;18.10;99.90;;;;;;5015473;28;20041;-72
2021/09/03 07:39:21;;;;;;;19.98;9.60;;;18.00;99.90;;;;;;5015536;28;20026;-73
2021/09/03 07:41:48;;;;;;;21.55;9.38;;;18.00;99.90;;;;;;5017122;28;20030;-73
2021/09/03 07:44:16;;;;;;;27.00;9.27;;;18.00;99.90;;;;;;5016266;28;20032;-73
2021/09/03 07:46:43;;;;;;;20.17;8.10;;;17.90;99.90;;;;;;5015432;28;20076;-75
2021/09/03 07:49:11;;;;;;;20.92;9.85;;;17.90;99.90;;;;;;5015899;28;20072;-73
2021/09/03 07:51:39;;;;;;;17.58;8.48;;;17.90;99.90;;;;;;5015273;28;20030;-75
2021/09/03 07:54:07;;;;;;;20.98;9.13;;;17.90;99.90;;;;;;5015482;28;20026;-73
2021/09/03 07:56:34;;;;;;;26.27;9.45;;;17.90;99.90;;;;;;4998838;28;20505;-72
2021/09/03 07:59:01;;;;;;;19.15;9.02;;;17.80;99.90;;;;;;5016246;28;20021;-73
2021/09/03 08:01:29;;;;;;;23.80;10.30;;;17.80;99.90;;;;;;5015099;28;20069;-72
2021/09/03 08:03:57;;;;;;;16.80;9.13;;;17.80;99.90;;;;;;5014708;28;20471;-73
2021/09/03 08:06:24;;;;;;;23.90;9.23;;;17.80;99.90;;;;;;5014723;28;20042;-73
2021/09/03 08:08:51;;;;;;;20.23;9.40;;;17.80;99.90;;;;;;5014890;28;20390;-72
2021/09/03 08:11:19;;;;;;;22.15;10.65;;;17.80;99.90;;;;;;5015986;28;20032;-73
2021/09/03 08:13:46;;;;;;;20.35;9.57;;;17.70;99.90;;;;;;5016079;28;20101;-73
2021/09/03 08:16:13;;;;;;;19.52;9.75;;;17.80;99.90;;;;;;5016097;28;20109;-73
2021/09/03 08:18:41;;;;;;;18.23;10.50;;;17.70;99.90;;;;;;5014530;28;20113;-72
2021/09/03 08:21:08;;;;;;;32.25;11.40;;;17.70;99.90;;;;;;5015769;28;20028;-72
2021/09/03 08:23:35;;;;;;;17.35;9.13;;;17.70;99.90;;;;;;5014497;28;20025;-73
2021/09/03 08:26:03;;;;;;;21.20;9.82;;;17.70;99.90;;;;;;5014576;28;20028;-72
2021/09/03 08:28:30;;;;;;;19.67;9.50;;;17.60;99.90;;;;;;5014836;28;20069;-73
2021/09/03 08:30:58;;;;;;;23.50;9.73;;;17.60;99.90;;;;;;5015741;28;20020;-73
2021/09/03 08:33:25;;;;;;;26.92;9.60;;;17.50;99.90;;;;;;5014422;28;20479;-73
2021/09/03 08:35:53;;;;;;;20.23;9.20;;;17.50;99.90;;;;;;5014415;28;20022;-73
2021/09/03 08:38:20;;;;;;;19.35;9.30;;;17.50;99.90;;;;;;5014226;28;20049;-73
2021/09/03 08:40:48;;;;;;;21.00;10.43;;;17.60;99.90;;;;;;5014069;28;20074;-73
2021/09/03 08:43:19;;;;;;;22.10;9.07;;;17.50;99.90;;;;;;5014137;28;20390;-74
2021/09/03 08:45:47;;;;;;;22.10;9.43;;;17.50;99.90;;;;;;5014089;28;20053;-73
2021/09/03 08:48:19;;;;;;;24.05;9.80;;;17.50;99.90;;;;;;5015317;28;20030;-74
2021/09/03 08:50:48;;;;;;;22.08;9.95;;;17.40;99.90;;;;;;5015445;28;20029;-73
2021/09/03 08:53:22;;;;;;;22.05;10.82;;;17.40;99.90;;;;;;5013957;28;20026;-73
2021/09/03 08:55:52;;;;;;;24.02;11.25;;;17.40;99.90;;;;;;5013987;28;20026;-74
2021/09/03 08:58:20;;;;;;;29.02;10.88;;;17.40;99.90;;;;;;5015251;28;20101;-74
2021/09/03 09:01:06;;;;;;;20.35;10.95;;;17.50;99.90;;;;;;5015041;28;20136;-73
2021/09/03 09:03:42;;;;;;;19.88;10.60;;;17.40;99.90;;;;;;5014899;28;20152;-73
2021/09/03 09:06:11;;;;;;;18.88;10.60;;;17.40;99.90;;;;;;5014909;28;20066;-74
2021/09/03 09:08:39;;;;;;;25.05;11.10;;;17.30;99.90;;;;;;5015070;28;20398;-73
2021/09/03 09:11:16;;;;;;;24.40;10.20;;;17.40;99.90;;;;;;5013378;28;20084;-74
2021/09/03 09:13:45;;;;;;;18.33;10.40;;;17.30;99.90;;;;;;5013597;28;20041;-74
2021/09/03 09:16:21;;;;;;;23.92;10.90;;;17.40;99.90;;;;;;5013562;28;20030;-74
2021/09/03 09:18:53;;;;;;;27.50;10.05;;;17.40;99.90;;;;;;5013491;28;20030;-73
2021/09/03 09:21:21;;;;;;;25.48;10.10;;;17.30;99.90;;;;;;5014731;28;20037;-74
2021/09/03 09:24:00;;;;;;;21.58;9.90;;;17.30;99.90;;;;;;5013346;28;20137;-73
2021/09/03 09:26:50;;;;;;;17.43;10.00;;;17.30;99.90;;;;;;5014637;28;20057;-73
2021/09/03 09:29:19;;;;;;;23.80;10.27;;;17.30;99.90;;;;;;5013642;28;20477;-74
2021/09/03 09:31:51;;;;;;;25.73;9.88;;;17.30;99.90;;;;;;5014492;28;20418;-73
2021/09/03 09:34:23;;;;;;;23.55;9.82;;;17.30;99.90;;;;;;5013556;28;20465;-75
2021/09/03 09:36:56;;;;;;;22.67;10.48;;;17.20;99.90;;;;;;5013175;28;20021;-74
2021/09/03 09:39:24;;;;;;;26.63;10.93;;;17.30;99.90;;;;;;5012977;28;20057;-74
2021/09/03 09:42:01;;;;;;;22.33;10.10;;;17.20;99.90;;;;;;5012551;28;20022;-74
2021/09/03 09:44:34;;;;;;;26.35;10.63;;;17.20;99.90;;;;;;4997212;28;20065;-75
2021/09/03 09:47:12;;;;;;;18.45;10.38;;;17.10;99.90;;;;;;5014955;28;20032;-74
2021/09/03 09:49:41;;;;;;;18.38;9.80;;;17.20;99.90;;;;;;5013711;28;20024;-74
2021/09/03 09:52:09;;;;;;;23.02;10.38;;;17.20;99.90;;;;;;5013205;28;20033;-73
2021/09/03 09:54:36;;;;;;;23.63;10.25;;;17.20;99.90;;;;;;5014809;28;20104;-74
2021/09/03 09:57:06;;;;;;;19.48;10.30;;;17.10;99.90;;;;;;5013448;28;20049;-72
2021/09/03 09:59:35;;;;;;;23.27;10.10;;;17.10;99.90;;;;;;5014707;28;20427;-73
2021/09/03 10:02:05;;;;;;;23.42;10.00;;;17.10;99.90;;;;;;5013174;28;20522;-74
2021/09/03 10:04:33;;;;;;;21.57;10.70;;;17.00;99.90;;;;;;5013894;28;20026;-74
2021/09/03 10:07:03;;;;;;;27.02;10.40;;;17.10;99.90;;;;;;4996997;28;20399;-73
2021/09/03 10:09:32;;;;;;;23.95;9.75;;;17.00;99.90;;;;;;5013362;28;20026;-73
2021/09/03 10:12:01;;;;;;;23.88;10.75;;;17.00;99.90;;;;;;5014371;28;20453;-73
2021/09/03 10:14:33;;;;;;;17.67;9.88;;;17.00;99.90;;;;;;5012993;28;20494;-73
2021/09/03 10:17:01;;;;;;;21.83;9.65;;;17.00;99.90;;;;;;5014312;28;20506;-73
2021/09/03 10:19:32;;;;;;;23.73;10.65;;;17.00;99.90;;;;;;5014425;28;20044;-74
2021/09/03 10:22:02;;;;;;;;;;;17.00;99.90;;;;;;5013234;28;20056;-73
2021/09/03 10:24:29;;;;;;;18.88;9.93;;;16.90;99.90;;;;;;5014184;28;19916;-73
2021/09/03 10:26:59;;;;;;;21.83;10.45;;;16.80;99.90;;;;;;5014286;28;20100;-73
2021/09/03 10:29:46;;;;;;;21.58;10.68;;;16.80;99.90;;;;;;5013952;28;20022;-72
2021/09/03 10:32:18;;;;;;;24.70;10.50;;;16.80;99.90;;;;;;5013825;28;20023;-73
2021/09/03 10:34:51;;;;;;;25.25;10.40;;;16.70;99.90;;;;;;5012684;28;20032;-74
2021/09/03 10:37:49;;;;;;;22.02;11.23;;;16.70;99.90;;;;;;5012565;28;20037;-72
2021/09/03 10:40:34;;;;;;;16.80;10.23;;;16.80;99.90;;;;;;5009646;28;20429;-71
2021/09/03 10:43:02;;;;;;;20.85;10.82;;;16.80;99.90;;;;;;5012377;28;20501;-74
2021/09/03 10:45:40;;;;;;;19.33;10.05;;;16.80;99.90;;;;;;5013906;28;20491;-73
2021/09/03 10:48:26;;;;;;;16.75;10.57;;;16.70;99.90;;;;;;5012466;28;20493;-73
2021/09/03 10:50:58;;;;;;;17.73;10.35;;;16.70;99.90;;;;;;5012036;28;20084;-72
2021/09/03 10:53:31;;;;;;;18.85;10.38;;;16.60;99.90;;;;;;5014016;28;20080;-72
2021/09/03 10:56:01;;;;;;;15.05;9.57;;;16.60;99.90;;;;;;5013990;28;20057;-72
2021/09/03 10:58:37;;;;;;;14.38;9.10;;;16.60;99.90;;;;;;5012448;28;20033;-72
2021/09/03 11:01:14;;;;;;;17.60;9.85;;;16.60;99.90;;;;;;5012429;28;20022;-73
2021/09/03 11:03:44;;;;;;;14.20;9.77;;;16.60;99.90;;;;;;5012353;28;20108;-72
2021/09/03 11:06:49;;;;;;;13.10;9.80;;;16.60;99.90;;;;;;5012150;28;20472;-72
2021/09/03 11:09:16;;;;;;;20.02;10.15;;;16.60;99.90;;;;;;5013672;28;20036;-72
2021/09/03 11:11:46;;;;;;;18.33;10.15;;;16.50;99.90;;;;;;5013343;28;20106;-72
2021/09/03 11:14:19;;;;;;;19.50;10.73;;;16.60;99.90;;;;;;5013281;28;20026;-72
2021/09/03 11:16:47;;;;;;;18.52;10.20;;;16.60;99.90;;;;;;5012144;28;20121;-72
2021/09/03 11:19:20;;;;;;;17.42;10.18;;;16.60;99.90;;;;;;5013260;28;20036;-72
2021/09/03 11:21:53;;;;;;;17.00;10.05;;;16.60;99.90;;;;;;5013443;28;20149;-73
2021/09/03 11:24:23;;;;;;;14.50;9.82;;;16.60;99.90;;;;;;5013364;28;20022;-72
2021/09/03 11:26:53;;;;;;;17.40;10.30;;;16.60;99.90;;;;;;5013418;28;20022;-72
2021/09/03 11:29:29;;;;;;;17.35;10.98;;;16.60;99.90;;;;;;5013325;28;20080;-72
2021/09/03 11:32:09;;;;;;;21.08;10.60;;;16.50;99.90;;;;;;5013360;28;20068;-72
2021/09/03 11:34:53;;;;;;;18.80;10.90;;;16.50;99.90;;;;;;5012245;28;20109;-72
2021/09/03 11:37:31;;;;;;;18.15;10.30;;;16.60;99.90;;;;;;5013654;28;20022;-73
2021/09/03 11:40:09;;;;;;;12.48;9.98;;;16.60;99.90;;;;;;5013285;28;20053;-73
2021/09/03 11:42:49;;;;;;;13.80;10.45;;;16.70;99.90;;;;;;5011986;28;20061;-74
2021/09/03 11:45:30;;;;;;;17.90;10.23;;;16.60;99.90;;;;;;5011872;28;20556;-73
2021/09/03 11:48:07;;;;;;;18.70;10.38;;;16.60;99.90;;;;;;5012005;28;20029;-72
2021/09/03 11:50:45;;;;;;;14.93;9.65;;;16.50;99.90;;;;;;5012026;28;20026;-72
2021/09/03 11:53:15;;;;;;;13.10;10.40;;;16.60;99.90;;;;;;5013295;28;20068;-73
2021/09/03 11:55:48;;;;;;;12.85;10.35;;;16.50;99.90;;;;;;5013342;28;20109;-72
2021/09/03 11:58:17;;;;;;;12.80;10.07;;;16.50;99.90;;;;;;5011995;28;20475;-73
2021/09/03 12:00:47;;;;;;;17.92;10.57;;;16.50;99.90;;;;;;5013065;28;20056;-72
2021/09/03 12:03:17;;;;;;;16.10;9.73;;;16.60;99.90;;;;;;5012499;28;20060;-71
2021/09/03 12:05:48;;;;;;;16.40;9.33;;;16.70;99.90;;;;;;5016264;28;20491;-72
2021/09/03 12:08:30;;;;;;;15.82;9.88;;;16.60;99.90;;;;;;5016760;28;20254;-72
2021/09/03 12:11:17;;;;;;;17.23;10.65;;;16.60;99.90;;;;;;5016180;28;20077;-72
2021/09/03 12:13:51;;;;;;;15.63;9.77;;;16.50;99.90;;;;;;5015416;28;20414;-73
2021/09/03 12:16:21;;;;;;;16.63;10.40;;;16.40;99.90;;;;;;5016452;28;20447;-73
2021/09/03 12:19:00;;;;;;;10.68;9.70;;;16.40;99.90;;;;;;5016399;28;20482;-73
2021/09/03 12:21:32;;;;;;;15.45;10.20;;;16.40;99.90;;;;;;5016221;28;20478;-73
2021/09/03 12:24:02;;;;;;;11.95;9.73;;;16.40;99.90;;;;;;5016342;28;20054;-75
2021/09/03 12:26:40;;;;;;;12.32;10.05;;;16.30;99.90;;;;;;5016345;28;20093;-73
2021/09/03 12:29:13;;;;;;;17.38;11.00;;;16.30;99.90;;;;;;5014859;28;20041;-72
2021/09/03 12:31:48;;;;;;;16.63;10.55;;;16.30;99.90;;;;;;5014875;28;20018;-72
2021/09/03 12:34:15;;;;;;;13.30;9.93;;;16.30;99.90;;;;;;5016360;28;20022;-73
2021/09/03 12:36:43;;;;;;;14.13;9.30;;;16.30;99.90;;;;;;5016069;28;20032;-72
2021/09/03 12:39:13;;;;;;;14.43;9.48;;;16.30;99.90;;;;;;5014677;28;20030;-72
2021/09/03 12:41:42;;;;;;;16.02;10.05;;;16.40;99.90;;;;;;5016021;28;20490;-73
2021/09/03 12:44:11;;;;;;;12.10;9.38;;;16.40;99.90;;;;;;5014699;28;20053;-73
2021/09/03 12:46:40;;;;;;;14.93;9.18;;;16.40;99.90;;;;;;5015889;28;20057;-73
2021/09/03 12:49:18;;;;;;;11.55;9.35;;;16.30;99.90;;;;;;5014796;28;20156;-73